sensor_id;sensor_type;location;lat;lon;timestamp;P1;durP1;ratioP1;P2;durP2;ratioP2
39188;SDS011;24915;50.858;4.376;2023-05-21T00:00:22;6.78;;;3.42;;
39188;SDS011;24915;50.858;4.376;2023-05-21T00:02:48;5.30;;;3.17;;
39188;SDS011;24915;50.858;4.376;2023-05-21T00:05:15;5.32;;;3.33;;
39188;SDS011;24915;50.858;4.376;2023-05-21T00:07:42;4.82;;;3.80;;
39188;SDS011;24915;50.858;4.376;2023-05-21T00:10:10;3.53;;;2.50;;
39188;SDS011;24915;50.858;4.376;2023-05-21T00:12:36;4.82;;;3.13;;
39188;SDS011;24915;50.858;4.376;2023-05-21T00:15:02;6.45;;;3.38;;
39188;SDS011;24915;50.858;4.376;2023-05-21T00:17:28;9.43;;;3.40;;
39188;SDS011;24915;50.858;4.376;2023-05-21T00:19:54;6.95;;;2.80;;
39188;SDS011;24915;50.858;4.376;2023-05-21T00:22:21;4.88;;;3.13;;
39188;SDS011;24915;50.858;4.376;2023-05-21T00:24:47;3.85;;;3.20;;
39188;SDS011;24915;50.858;4.376;2023-05-21T00:27:14;5.82;;;3.28;;
39188;SDS011;24915;50.858;4.376;2023-05-21T00:29:40;5.70;;;2.88;;
39188;SDS011;24915;50.858;4.376;2023-05-21T00:32:06;8.15;;;3.22;;
39188;SDS011;24915;50.858;4.376;2023-05-21T00:34:32;4.40;;;3.60;;
39188;SDS011;24915;50.858;4.376;2023-05-21T00:36:58;4.53;;;3.13;;
39188;SDS011;24915;50.858;4.376;2023-05-21T00:39:26;5.10;;;3.30;;
39188;SDS011;24915;50.858;4.376;2023-05-21T00:41:52;3.85;;;3.08;;
39188;SDS011;24915;50.858;4.376;2023-05-21T00:44:20;8.32;;;3.35;;
39188;SDS011;24915;50.858;4.376;2023-05-21T00:46:48;3.25;;;2.95;;
39188;SDS011;24915;50.858;4.376;2023-05-21T00:49:17;3.92;;;3.20;;
39188;SDS011;24915;50.858;4.376;2023-05-21T00:51:44;6.30;;;3.20;;
39188;SDS011;24915;50.858;4.376;2023-05-21T00:54:10;6.88;;;3.38;;
39188;SDS011;24915;50.858;4.376;2023-05-21T00:56:36;6.30;;;3.17;;
39188;SDS011;24915;50.858;4.376;2023-05-21T00:59:03;5.20;;;3.53;;
39188;SDS011;24915;50.858;4.376;2023-05-21T01:01:30;3.47;;;3.17;;
39188;SDS011;24915;50.858;4.376;2023-05-21T01:04:00;4.68;;;3.30;;
39188;SDS011;24915;50.858;4.376;2023-05-21T01:06:27;5.20;;;3.90;;
39188;SDS011;24915;50.858;4.376;2023-05-21T01:08:53;4.00;;;3.60;;
39188;SDS011;24915;50.858;4.376;2023-05-21T01:11:24;5.00;;;3.30;;
39188;SDS011;24915;50.858;4.376;2023-05-21T01:13:52;4.70;;;3.47;;
39188;SDS011;24915;50.858;4.376;2023-05-21T01:16:18;4.55;;;3.53;;
39188;SDS011;24915;50.858;4.376;2023-05-21T01:18:45;6.80;;;3.30;;
39188;SDS011;24915;50.858;4.376;2023-05-21T01:21:11;5.38;;;4.20;;
39188;SDS011;24915;50.858;4.376;2023-05-21T01:23:41;8.63;;;3.97;;
39188;SDS011;24915;50.858;4.376;2023-05-21T01:26:07;6.35;;;3.35;;
39188;SDS011;24915;50.858;4.376;2023-05-21T01:28:36;5.82;;;3.58;;
39188;SDS011;24915;50.858;4.376;2023-05-21T01:31:07;7.43;;;3.67;;
39188;SDS011;24915;50.858;4.376;2023-05-21T01:33:37;3.88;;;3.53;;
39188;SDS011;24915;50.858;4.376;2023-05-21T01:36:11;3.50;;;3.20;;
39188;SDS011;24915;50.858;4.376;2023-05-21T01:38:46;5.43;;;3.92;;
39188;SDS011;24915;50.858;4.376;2023-05-21T01:41:14;4.95;;;4.00;;
39188;SDS011;24915;50.858;4.376;2023-05-21T01:43:43;5.60;;;4.30;;
39188;SDS011;24915;50.858;4.376;2023-05-21T01:46:11;6.70;;;4.13;;
39188;SDS011;24915;50.858;4.376;2023-05-21T01:48:38;10.70;;;3.90;;
39188;SDS011;24915;50.858;4.376;2023-05-21T01:51:05;7.13;;;4.32;;
39188;SDS011;24915;50.858;4.376;2023-05-21T01:53:31;8.70;;;3.75;;
39188;SDS011;24915;50.858;4.376;2023-05-21T01:55:57;6.65;;;3.60;;
39188;SDS011;24915;50.858;4.376;2023-05-21T01:58:24;6.78;;;3.90;;
39188;SDS011;24915;50.858;4.376;2023-05-21T02:00:50;7.97;;;4.30;;
39188;SDS011;24915;50.858;4.376;2023-05-21T02:03:17;8.73;;;4.10;;
39188;SDS011;24915;50.858;4.376;2023-05-21T02:05:43;7.78;;;5.22;;
39188;SDS011;24915;50.858;4.376;2023-05-21T02:08:10;6.05;;;4.50;;
39188;SDS011;24915;50.858;4.376;2023-05-21T02:10:37;6.50;;;4.15;;
39188;SDS011;24915;50.858;4.376;2023-05-21T02:13:03;4.30;;;3.90;;
39188;SDS011;24915;50.858;4.376;2023-05-21T02:15:29;6.05;;;4.13;;
39188;SDS011;24915;50.858;4.376;2023-05-21T02:17:58;8.05;;;4.32;;
39188;SDS011;24915;50.858;4.376;2023-05-21T02:20:24;7.10;;;4.50;;
39188;SDS011;24915;50.858;4.376;2023-05-21T02:22:50;6.50;;;4.38;;
39188;SDS011;24915;50.858;4.376;2023-05-21T02:25:17;9.57;;;4.40;;
39188;SDS011;24915;50.858;4.376;2023-05-21T02:27:46;9.88;;;4.45;;
39188;SDS011;24915;50.858;4.376;2023-05-21T02:30:16;5.25;;;4.30;;
39188;SDS011;24915;50.858;4.376;2023-05-21T02:32:42;5.00;;;4.47;;
39188;SDS011;24915;50.858;4.376;2023-05-21T02:35:09;5.35;;;4.30;;
39188;SDS011;24915;50.858;4.376;2023-05-21T02:37:36;4.65;;;4.25;;
39188;SDS011;24915;50.858;4.376;2023-05-21T02:40:03;8.93;;;4.57;;
39188;SDS011;24915;50.858;4.376;2023-05-21T02:42:30;5.80;;;4.95;;
39188;SDS011;24915;50.858;4.376;2023-05-21T02:44:56;4.60;;;4.20;;
39188;SDS011;24915;50.858;4.376;2023-05-21T02:47:22;4.95;;;4.47;;
39188;SDS011;24915;50.858;4.376;2023-05-21T02:49:49;5.90;;;4.40;;
39188;SDS011;24915;50.858;4.376;2023-05-21T02:52:16;7.65;;;4.03;;
39188;SDS011;24915;50.858;4.376;2023-05-21T02:54:42;9.45;;;4.80;;
39188;SDS011;24915;50.858;4.376;2023-05-21T02:57:09;7.75;;;4.85;;
39188;SDS011;24915;50.858;4.376;2023-05-21T02:59:35;7.82;;;4.30;;
39188;SDS011;24915;50.858;4.376;2023-05-21T03:02:01;7.38;;;4.40;;
39188;SDS011;24915;50.858;4.376;2023-05-21T03:04:27;6.35;;;5.00;;
39188;SDS011;24915;50.858;4.376;2023-05-21T03:06:53;5.78;;;4.93;;
39188;SDS011;24915;50.858;4.376;2023-05-21T03:09:20;5.97;;;4.60;;
39188;SDS011;24915;50.858;4.376;2023-05-21T03:11:47;7.05;;;4.68;;
39188;SDS011;24915;50.858;4.376;2023-05-21T03:14:13;5.00;;;4.55;;
39188;SDS011;24915;50.858;4.376;2023-05-21T03:16:40;6.13;;;5.00;;
39188;SDS011;24915;50.858;4.376;2023-05-21T03:19:08;7.88;;;5.38;;
39188;SDS011;24915;50.858;4.376;2023-05-21T03:21:34;7.82;;;5.00;;
39188;SDS011;24915;50.858;4.376;2023-05-21T03:24:01;9.20;;;5.07;;
39188;SDS011;24915;50.858;4.376;2023-05-21T03:26:27;8.38;;;5.63;;
39188;SDS011;24915;50.858;4.376;2023-05-21T03:28:54;5.97;;;5.32;;
39188;SDS011;24915;50.858;4.376;2023-05-21T03:31:20;8.60;;;5.47;;
39188;SDS011;24915;50.858;4.376;2023-05-21T03:33:46;7.30;;;5.15;;
39188;SDS011;24915;50.858;4.376;2023-05-21T03:36:12;5.65;;;5.10;;
39188;SDS011;24915;50.858;4.376;2023-05-21T03:38:38;9.93;;;5.22;;
39188;SDS011;24915;50.858;4.376;2023-05-21T03:41:07;6.40;;;5.07;;
39188;SDS011;24915;50.858;4.376;2023-05-21T03:43:33;8.55;;;5.15;;
39188;SDS011;24915;50.858;4.376;2023-05-21T03:46:00;7.35;;;5.38;;
39188;SDS011;24915;50.858;4.376;2023-05-21T03:48:26;7.55;;;5.43;;
39188;SDS011;24915;50.858;4.376;2023-05-21T03:50:52;5.80;;;5.28;;
39188;SDS011;24915;50.858;4.376;2023-05-21T03:53:18;15.88;;;6.45;;
39188;SDS011;24915;50.858;4.376;2023-05-21T03:55:44;7.85;;;5.30;;
39188;SDS011;24915;50.858;4.376;2023-05-21T03:58:11;6.60;;;5.50;;
39188;SDS011;24915;50.858;4.376;2023-05-21T04:00:37;8.50;;;5.25;;
39188;SDS011;24915;50.858;4.376;2023-05-21T04:03:03;7.05;;;5.32;;
39188;SDS011;24915;50.858;4.376;2023-05-21T04:05:31;9.35;;;5.50;;
39188;SDS011;24915;50.858;4.376;2023-05-21T04:07:57;7.95;;;5.68;;
39188;SDS011;24915;50.858;4.376;2023-05-21T04:10:24;7.18;;;5.70;;
39188;SDS011;24915;50.858;4.376;2023-05-21T04:12:51;6.25;;;5.15;;
39188;SDS011;24915;50.858;4.376;2023-05-21T04:15:17;9.80;;;5.20;;
39188;SDS011;24915;50.858;4.376;2023-05-21T04:17:43;6.57;;;5.07;;
39188;SDS011;24915;50.858;4.376;2023-05-21T04:20:11;7.63;;;5.13;;
39188;SDS011;24915;50.858;4.376;2023-05-21T04:22:37;13.80;;;5.57;;
39188;SDS011;24915;50.858;4.376;2023-05-21T04:25:04;5.72;;;5.13;;
39188;SDS011;24915;50.858;4.376;2023-05-21T04:27:30;7.40;;;5.22;;
39188;SDS011;24915;50.858;4.376;2023-05-21T04:29:56;9.93;;;5.60;;
39188;SDS011;24915;50.858;4.376;2023-05-21T04:32:22;9.15;;;5.45;;
39188;SDS011;24915;50.858;4.376;2023-05-21T04:34:48;6.38;;;5.57;;
39188;SDS011;24915;50.858;4.376;2023-05-21T04:37:15;9.48;;;6.15;;
39188;SDS011;24915;50.858;4.376;2023-05-21T04:39:44;7.60;;;5.43;;
39188;SDS011;24915;50.858;4.376;2023-05-21T04:42:10;10.68;;;5.75;;
39188;SDS011;24915;50.858;4.376;2023-05-21T04:44:37;8.55;;;5.95;;
39188;SDS011;24915;50.858;4.376;2023-05-21T04:47:04;7.53;;;5.50;;
39188;SDS011;24915;50.858;4.376;2023-05-21T04:49:31;9.52;;;6.40;;
39188;SDS011;24915;50.858;4.376;2023-05-21T04:51:59;11.93;;;5.70;;
39188;SDS011;24915;50.858;4.376;2023-05-21T04:54:26;9.23;;;5.80;;
39188;SDS011;24915;50.858;4.376;2023-05-21T04:56:52;8.63;;;5.60;;
39188;SDS011;24915;50.858;4.376;2023-05-21T04:59:18;8.57;;;6.00;;
39188;SDS011;24915;50.858;4.376;2023-05-21T05:01:45;7.75;;;5.70;;
39188;SDS011;24915;50.858;4.376;2023-05-21T05:04:11;6.93;;;5.32;;
39188;SDS011;24915;50.858;4.376;2023-05-21T05:06:37;8.75;;;5.57;;
39188;SDS011;24915;50.858;4.376;2023-05-21T05:09:03;7.43;;;5.57;;
39188;SDS011;24915;50.858;4.376;2023-05-21T05:11:29;9.93;;;6.13;;
39188;SDS011;24915;50.858;4.376;2023-05-21T05:13:55;9.65;;;5.97;;
39188;SDS011;24915;50.858;4.376;2023-05-21T05:16:21;14.40;;;6.13;;
39188;SDS011;24915;50.858;4.376;2023-05-21T05:18:51;7.35;;;5.07;;
39188;SDS011;24915;50.858;4.376;2023-05-21T05:21:17;8.23;;;5.43;;
39188;SDS011;24915;50.858;4.376;2023-05-21T05:23:43;6.90;;;5.43;;
39188;SDS011;24915;50.858;4.376;2023-05-21T05:26:09;10.15;;;5.68;;
39188;SDS011;24915;50.858;4.376;2023-05-21T05:28:35;6.57;;;5.90;;
39188;SDS011;24915;50.858;4.376;2023-05-21T05:31:02;7.18;;;5.68;;
39188;SDS011;24915;50.858;4.376;2023-05-21T05:33:28;9.40;;;5.32;;
39188;SDS011;24915;50.858;4.376;2023-05-21T05:35:54;7.32;;;5.38;;
39188;SDS011;24915;50.858;4.376;2023-05-21T05:38:20;5.60;;;5.10;;
39188;SDS011;24915;50.858;4.376;2023-05-21T05:40:46;7.28;;;5.93;;
39188;SDS011;24915;50.858;4.376;2023-05-21T05:43:12;11.10;;;5.95;;
39188;SDS011;24915;50.858;4.376;2023-05-21T05:45:38;6.97;;;5.28;;
39188;SDS011;24915;50.858;4.376;2023-05-21T05:48:04;9.10;;;5.65;;
39188;SDS011;24915;50.858;4.376;2023-05-21T05:50:30;8.98;;;5.22;;
39188;SDS011;24915;50.858;4.376;2023-05-21T05:52:56;6.22;;;5.63;;
39188;SDS011;24915;50.858;4.376;2023-05-21T05:55:23;9.77;;;5.85;;
39188;SDS011;24915;50.858;4.376;2023-05-21T05:57:50;6.10;;;5.45;;
39188;SDS011;24915;50.858;4.376;2023-05-21T06:00:17;9.27;;;5.95;;
39188;SDS011;24915;50.858;4.376;2023-05-21T06:02:43;12.00;;;6.43;;
39188;SDS011;24915;50.858;4.376;2023-05-21T06:05:09;8.23;;;5.75;;
39188;SDS011;24915;50.858;4.376;2023-05-21T06:07:39;7.32;;;5.90;;
39188;SDS011;24915;50.858;4.376;2023-05-21T06:10:05;7.35;;;5.78;;
39188;SDS011;24915;50.858;4.376;2023-05-21T06:12:31;11.10;;;5.78;;
39188;SDS011;24915;50.858;4.376;2023-05-21T06:14:57;9.90;;;6.35;;
39188;SDS011;24915;50.858;4.376;2023-05-21T06:17:23;7.25;;;5.80;;
39188;SDS011;24915;50.858;4.376;2023-05-21T06:19:50;7.13;;;5.50;;
39188;SDS011;24915;50.858;4.376;2023-05-21T06:22:16;9.77;;;6.07;;
39188;SDS011;24915;50.858;4.376;2023-05-21T06:24:42;7.45;;;5.72;;
39188;SDS011;24915;50.858;4.376;2023-05-21T06:27:08;9.05;;;5.85;;
39188;SDS011;24915;50.858;4.376;2023-05-21T06:29:34;8.02;;;6.30;;
39188;SDS011;24915;50.858;4.376;2023-05-21T06:32:00;9.15;;;5.90;;
39188;SDS011;24915;50.858;4.376;2023-05-21T06:34:26;11.23;;;6.30;;
39188;SDS011;24915;50.858;4.376;2023-05-21T06:36:55;9.23;;;5.63;;
39188;SDS011;24915;50.858;4.376;2023-05-21T06:39:21;6.57;;;5.82;;
39188;SDS011;24915;50.858;4.376;2023-05-21T06:41:48;7.78;;;6.00;;
39188;SDS011;24915;50.858;4.376;2023-05-21T06:44:14;7.85;;;5.70;;
39188;SDS011;24915;50.858;4.376;2023-05-21T06:46:41;9.95;;;5.97;;
39188;SDS011;24915;50.858;4.376;2023-05-21T06:49:07;8.60;;;6.00;;
39188;SDS011;24915;50.858;4.376;2023-05-21T06:51:33;6.07;;;5.47;;
39188;SDS011;24915;50.858;4.376;2023-05-21T06:53:59;9.00;;;5.68;;
39188;SDS011;24915;50.858;4.376;2023-05-21T06:56:25;5.80;;;5.30;;
39188;SDS011;24915;50.858;4.376;2023-05-21T06:58:51;5.80;;;5.30;;
39188;SDS011;24915;50.858;4.376;2023-05-21T07:01:18;8.52;;;5.72;;
39188;SDS011;24915;50.858;4.376;2023-05-21T07:03:46;6.38;;;5.78;;
39188;SDS011;24915;50.858;4.376;2023-05-21T07:06:12;9.77;;;6.05;;
39188;SDS011;24915;50.858;4.376;2023-05-21T07:08:38;8.82;;;5.75;;
39188;SDS011;24915;50.858;4.376;2023-05-21T07:11:04;6.35;;;5.20;;
39188;SDS011;24915;50.858;4.376;2023-05-21T07:13:30;6.07;;;5.45;;
39188;SDS011;24915;50.858;4.376;2023-05-21T07:15:56;10.07;;;6.05;;
39188;SDS011;24915;50.858;4.376;2023-05-21T07:18:22;6.47;;;5.88;;
39188;SDS011;24915;50.858;4.376;2023-05-21T07:20:48;8.02;;;5.47;;
39188;SDS011;24915;50.858;4.376;2023-05-21T07:23:15;9.45;;;6.07;;
39188;SDS011;24915;50.858;4.376;2023-05-21T07:25:41;10.60;;;6.63;;
39188;SDS011;24915;50.858;4.376;2023-05-21T07:28:07;8.30;;;5.90;;
39188;SDS011;24915;50.858;4.376;2023-05-21T07:30:33;9.57;;;5.75;;
39188;SDS011;24915;50.858;4.376;2023-05-21T07:32:59;8.30;;;6.10;;
39188;SDS011;24915;50.858;4.376;2023-05-21T07:35:25;9.48;;;5.68;;
39188;SDS011;24915;50.858;4.376;2023-05-21T07:37:51;6.70;;;5.88;;
39188;SDS011;24915;50.858;4.376;2023-05-21T07:40:17;7.78;;;6.00;;
39188;SDS011;24915;50.858;4.376;2023-05-21T07:42:43;6.90;;;5.97;;
39188;SDS011;24915;50.858;4.376;2023-05-21T07:45:09;9.05;;;5.88;;
39188;SDS011;24915;50.858;4.376;2023-05-21T07:47:35;6.47;;;5.93;;
39188;SDS011;24915;50.858;4.376;2023-05-21T07:50:01;7.80;;;6.25;;
39188;SDS011;24915;50.858;4.376;2023-05-21T07:52:27;6.70;;;5.65;;
39188;SDS011;24915;50.858;4.376;2023-05-21T07:54:53;6.70;;;6.00;;
39188;SDS011;24915;50.858;4.376;2023-05-21T07:57:19;12.15;;;5.60;;
39188;SDS011;24915;50.858;4.376;2023-05-21T07:59:45;12.18;;;6.70;;
39188;SDS011;24915;50.858;4.376;2023-05-21T08:02:11;8.05;;;6.20;;
39188;SDS011;24915;50.858;4.376;2023-05-21T08:04:37;8.88;;;6.30;;
39188;SDS011;24915;50.858;4.376;2023-05-21T08:07:03;6.43;;;5.70;;
39188;SDS011;24915;50.858;4.376;2023-05-21T08:09:30;6.90;;;6.25;;
39188;SDS011;24915;50.858;4.376;2023-05-21T08:11:56;8.73;;;7.93;;
39188;SDS011;24915;50.858;4.376;2023-05-21T08:14:22;12.82;;;8.90;;
39188;SDS011;24915;50.858;4.376;2023-05-21T08:16:48;13.43;;;9.50;;
39188;SDS011;24915;50.858;4.376;2023-05-21T08:19:14;10.63;;;7.72;;
39188;SDS011;24915;50.858;4.376;2023-05-21T08:21:40;12.65;;;6.53;;
39188;SDS011;24915;50.858;4.376;2023-05-21T08:24:07;9.63;;;6.95;;
39188;SDS011;24915;50.858;4.376;2023-05-21T08:26:33;11.60;;;7.55;;
39188;SDS011;24915;50.858;4.376;2023-05-21T08:28:59;24.13;;;15.15;;
39188;SDS011;24915;50.858;4.376;2023-05-21T08:31:26;10.23;;;7.30;;
39188;SDS011;24915;50.858;4.376;2023-05-21T08:33:52;7.78;;;6.40;;
39188;SDS011;24915;50.858;4.376;2023-05-21T08:36:20;10.20;;;7.28;;
39188;SDS011;24915;50.858;4.376;2023-05-21T08:38:46;10.77;;;8.55;;
39188;SDS011;24915;50.858;4.376;2023-05-21T08:41:12;9.07;;;8.18;;
39188;SDS011;24915;50.858;4.376;2023-05-21T08:43:39;15.60;;;12.77;;
39188;SDS011;24915;50.858;4.376;2023-05-21T08:46:05;17.58;;;13.40;;
39188;SDS011;24915;50.858;4.376;2023-05-21T08:48:33;14.43;;;9.23;;
39188;SDS011;24915;50.858;4.376;2023-05-21T08:50:59;9.90;;;8.00;;
39188;SDS011;24915;50.858;4.376;2023-05-21T08:53:25;9.90;;;8.20;;
39188;SDS011;24915;50.858;4.376;2023-05-21T08:55:52;12.75;;;7.70;;
39188;SDS011;24915;50.858;4.376;2023-05-21T08:58:20;14.02;;;10.15;;
39188;SDS011;24915;50.858;4.376;2023-05-21T09:00:46;15.18;;;11.27;;
39188;SDS011;24915;50.858;4.376;2023-05-21T09:03:13;9.48;;;7.40;;
39188;SDS011;24915;50.858;4.376;2023-05-21T09:05:40;13.27;;;7.88;;
39188;SDS011;24915;50.858;4.376;2023-05-21T09:08:12;10.68;;;7.97;;
39188;SDS011;24915;50.858;4.376;2023-05-21T09:10:39;12.20;;;8.70;;
39188;SDS011;24915;50.858;4.376;2023-05-21T09:13:06;10.63;;;8.15;;
39188;SDS011;24915;50.858;4.376;2023-05-21T09:15:32;11.20;;;7.32;;
39188;SDS011;24915;50.858;4.376;2023-05-21T09:17:58;10.20;;;7.40;;
39188;SDS011;24915;50.858;4.376;2023-05-21T09:20:24;9.68;;;7.53;;
39188;SDS011;24915;50.858;4.376;2023-05-21T09:22:51;18.15;;;8.55;;
39188;SDS011;24915;50.858;4.376;2023-05-21T09:25:19;8.52;;;7.70;;
39188;SDS011;24915;50.858;4.376;2023-05-21T09:27:46;10.35;;;7.78;;
39188;SDS011;24915;50.858;4.376;2023-05-21T09:30:13;10.60;;;7.05;;
39188;SDS011;24915;50.858;4.376;2023-05-21T09:32:39;10.80;;;7.40;;
39188;SDS011;24915;50.858;4.376;2023-05-21T09:37:35;11.10;;;8.27;;
39188;SDS011;24915;50.858;4.376;2023-05-21T09:40:07;9.63;;;8.43;;
39188;SDS011;24915;50.858;4.376;2023-05-21T09:42:34;8.35;;;7.43;;
39188;SDS011;24915;50.858;4.376;2023-05-21T09:45:00;10.98;;;7.30;;
39188;SDS011;24915;50.858;4.376;2023-05-21T09:47:27;10.18;;;7.63;;
39188;SDS011;24915;50.858;4.376;2023-05-21T09:49:56;16.58;;;12.80;;
39188;SDS011;24915;50.858;4.376;2023-05-21T09:52:25;13.80;;;11.70;;
39188;SDS011;24915;50.858;4.376;2023-05-21T09:54:52;10.60;;;8.68;;
39188;SDS011;24915;50.858;4.376;2023-05-21T09:57:27;12.75;;;8.68;;
39188;SDS011;24915;50.858;4.376;2023-05-21T09:59:54;12.65;;;8.40;;
39188;SDS011;24915;50.858;4.376;2023-05-21T10:02:20;9.98;;;8.98;;
39188;SDS011;24915;50.858;4.376;2023-05-21T10:04:47;12.25;;;9.93;;
39188;SDS011;24915;50.858;4.376;2023-05-21T10:07:17;27.83;;;11.48;;
39188;SDS011;24915;50.858;4.376;2023-05-21T10:09:49;13.43;;;9.35;;
39188;SDS011;24915;50.858;4.376;2023-05-21T10:12:17;10.30;;;9.27;;
39188;SDS011;24915;50.858;4.376;2023-05-21T10:14:44;14.13;;;9.35;;
39188;SDS011;24915;50.858;4.376;2023-05-21T10:17:11;12.43;;;9.73;;
39188;SDS011;24915;50.858;4.376;2023-05-21T10:19:37;12.63;;;9.07;;
39188;SDS011;24915;50.858;4.376;2023-05-21T10:22:04;11.77;;;7.97;;
39188;SDS011;24915;50.858;4.376;2023-05-21T10:24:31;10.63;;;9.02;;
39188;SDS011;24915;50.858;4.376;2023-05-21T10:26:57;13.05;;;9.38;;
39188;SDS011;24915;50.858;4.376;2023-05-21T10:29:25;10.27;;;8.13;;
39188;SDS011;24915;50.858;4.376;2023-05-21T10:31:52;11.75;;;7.95;;
39188;SDS011;24915;50.858;4.376;2023-05-21T10:34:18;14.20;;;8.82;;
39188;SDS011;24915;50.858;4.376;2023-05-21T10:36:44;13.85;;;8.32;;
39188;SDS011;24915;50.858;4.376;2023-05-21T10:39:11;10.65;;;8.85;;
39188;SDS011;24915;50.858;4.376;2023-05-21T10:52:06;12.95;;;9.35;;
39188;SDS011;24915;50.858;4.376;2023-05-21T10:54:37;10.80;;;8.85;;
39188;SDS011;24915;50.858;4.376;2023-05-21T10:57:08;12.00;;;9.13;;
39188;SDS011;24915;50.858;4.376;2023-05-21T11:02:06;11.73;;;9.55;;
39188;SDS011;24915;50.858;4.376;2023-05-21T11:04:32;11.02;;;8.32;;
39188;SDS011;24915;50.858;4.376;2023-05-21T11:07:03;13.23;;;10.18;;
39188;SDS011;24915;50.858;4.376;2023-05-21T11:09:30;13.65;;;9.75;;
39188;SDS011;24915;50.858;4.376;2023-05-21T11:11:57;14.35;;;9.07;;
39188;SDS011;24915;50.858;4.376;2023-05-21T11:14:33;17.02;;;9.45;;
39188;SDS011;24915;50.858;4.376;2023-05-21T11:17:00;11.48;;;9.73;;
39188;SDS011;24915;50.858;4.376;2023-05-21T11:19:37;12.07;;;9.77;;
39188;SDS011;24915;50.858;4.376;2023-05-21T11:22:19;13.45;;;10.77;;
39188;SDS011;24915;50.858;4.376;2023-05-21T11:24:45;12.95;;;10.05;;
39188;SDS011;24915;50.858;4.376;2023-05-21T11:27:11;15.25;;;10.27;;
39188;SDS011;24915;50.858;4.376;2023-05-21T11:29:38;12.45;;;10.27;;
39188;SDS011;24915;50.858;4.376;2023-05-21T11:32:05;14.85;;;10.43;;
39188;SDS011;24915;50.858;4.376;2023-05-21T11:34:51;13.30;;;9.85;;
39188;SDS011;24915;50.858;4.376;2023-05-21T11:39:44;17.00;;;10.73;;
39188;SDS011;24915;50.858;4.376;2023-05-21T11:42:11;11.50;;;9.75;;
39188;SDS011;24915;50.858;4.376;2023-05-21T11:44:37;14.05;;;11.18;;
39188;SDS011;24915;50.858;4.376;2023-05-21T11:47:04;12.50;;;9.65;;
39188;SDS011;24915;50.858;4.376;2023-05-21T11:49:31;16.88;;;11.00;;
39188;SDS011;24915;50.858;4.376;2023-05-21T11:52:00;15.00;;;10.98;;
39188;SDS011;24915;50.858;4.376;2023-05-21T11:54:27;11.05;;;9.77;;
39188;SDS011;24915;50.858;4.376;2023-05-21T11:56:58;16.02;;;10.18;;
39188;SDS011;24915;50.858;4.376;2023-05-21T11:59:25;14.95;;;10.85;;
39188;SDS011;24915;50.858;4.376;2023-05-21T12:01:51;11.90;;;9.52;;
39188;SDS011;24915;50.858;4.376;2023-05-21T12:04:18;11.70;;;10.38;;
39188;SDS011;24915;50.858;4.376;2023-05-21T12:06:44;12.88;;;10.27;;
39188;SDS011;24915;50.858;4.376;2023-05-21T12:09:12;13.88;;;10.52;;
39188;SDS011;24915;50.858;4.376;2023-05-21T12:11:38;13.48;;;10.70;;
39188;SDS011;24915;50.858;4.376;2023-05-21T12:14:11;12.50;;;10.38;;
39188;SDS011;24915;50.858;4.376;2023-05-21T12:16:40;25.02;;;11.02;;
39188;SDS011;24915;50.858;4.376;2023-05-21T12:19:06;15.13;;;11.05;;
39188;SDS011;24915;50.858;4.376;2023-05-21T12:21:32;12.45;;;10.65;;
39188;SDS011;24915;50.858;4.376;2023-05-21T12:23:58;12.35;;;10.70;;
39188;SDS011;24915;50.858;4.376;2023-05-21T12:26:25;15.75;;;11.40;;
39188;SDS011;24915;50.858;4.376;2023-05-21T12:28:53;15.23;;;11.57;;
39188;SDS011;24915;50.858;4.376;2023-05-21T12:31:20;16.75;;;11.60;;
39188;SDS011;24915;50.858;4.376;2023-05-21T12:33:50;15.70;;;9.82;;
39188;SDS011;24915;50.858;4.376;2023-05-21T12:36:20;12.75;;;10.30;;
39188;SDS011;24915;50.858;4.376;2023-05-21T12:38:47;15.05;;;10.82;;
39188;SDS011;24915;50.858;4.376;2023-05-21T12:41:13;15.27;;;10.68;;
39188;SDS011;24915;50.858;4.376;2023-05-21T12:43:39;17.58;;;10.70;;
39188;SDS011;24915;50.858;4.376;2023-05-21T12:46:06;13.77;;;10.93;;
39188;SDS011;24915;50.858;4.376;2023-05-21T12:48:32;11.65;;;9.20;;
39188;SDS011;24915;50.858;4.376;2023-05-21T12:50:58;14.45;;;10.63;;
39188;SDS011;24915;50.858;4.376;2023-05-21T12:53:24;15.32;;;10.95;;
39188;SDS011;24915;50.858;4.376;2023-05-21T12:56:10;11.25;;;9.98;;
39188;SDS011;24915;50.858;4.376;2023-05-21T12:58:36;12.00;;;10.18;;
39188;SDS011;24915;50.858;4.376;2023-05-21T13:01:08;18.92;;;10.30;;
39188;SDS011;24915;50.858;4.376;2023-05-21T13:03:35;13.15;;;10.35;;
39188;SDS011;24915;50.858;4.376;2023-05-21T13:06:02;11.57;;;10.38;;
39188;SDS011;24915;50.858;4.376;2023-05-21T13:08:30;15.27;;;10.73;;
39188;SDS011;24915;50.858;4.376;2023-05-21T13:10:58;12.52;;;9.90;;
39188;SDS011;24915;50.858;4.376;2023-05-21T13:13:25;12.90;;;9.93;;
39188;SDS011;24915;50.858;4.376;2023-05-21T13:15:51;13.35;;;10.18;;
39188;SDS011;24915;50.858;4.376;2023-05-21T13:18:17;17.92;;;10.35;;
39188;SDS011;24915;50.858;4.376;2023-05-21T13:20:45;20.08;;;11.27;;
39188;SDS011;24915;50.858;4.376;2023-05-21T13:23:11;17.02;;;11.43;;
39188;SDS011;24915;50.858;4.376;2023-05-21T13:25:37;16.25;;;11.70;;
39188;SDS011;24915;50.858;4.376;2023-05-21T13:28:03;14.07;;;10.65;;
39188;SDS011;24915;50.858;4.376;2023-05-21T13:30:30;19.17;;;10.88;;
39188;SDS011;24915;50.858;4.376;2023-05-21T13:32:59;12.80;;;10.85;;
39188;SDS011;24915;50.858;4.376;2023-05-21T13:35:25;16.85;;;10.02;;
39188;SDS011;24915;50.858;4.376;2023-05-21T13:37:51;15.95;;;10.15;;
39188;SDS011;24915;50.858;4.376;2023-05-21T13:40:17;14.60;;;10.73;;
39188;SDS011;24915;50.858;4.376;2023-05-21T13:42:44;13.95;;;10.45;;
39188;SDS011;24915;50.858;4.376;2023-05-21T13:45:11;17.05;;;11.30;;
39188;SDS011;24915;50.858;4.376;2023-05-21T13:47:37;11.48;;;10.38;;
39188;SDS011;24915;50.858;4.376;2023-05-21T13:50:04;15.07;;;9.30;;
39188;SDS011;24915;50.858;4.376;2023-05-21T13:52:30;13.52;;;9.65;;
39188;SDS011;24915;50.858;4.376;2023-05-21T13:54:56;13.93;;;9.25;;
39188;SDS011;24915;50.858;4.376;2023-05-21T13:57:22;11.70;;;9.63;;
39188;SDS011;24915;50.858;4.376;2023-05-21T13:59:50;14.65;;;10.32;;
39188;SDS011;24915;50.858;4.376;2023-05-21T14:02:16;11.00;;;9.57;;
39188;SDS011;24915;50.858;4.376;2023-05-21T14:04:43;11.68;;;9.40;;
39188;SDS011;24915;50.858;4.376;2023-05-21T14:07:09;16.15;;;10.45;;
39188;SDS011;24915;50.858;4.376;2023-05-21T14:09:38;14.77;;;9.75;;
39188;SDS011;24915;50.858;4.376;2023-05-21T14:12:04;12.52;;;9.52;;
39188;SDS011;24915;50.858;4.376;2023-05-21T14:14:31;15.25;;;10.52;;
39188;SDS011;24915;50.858;4.376;2023-05-21T14:16:57;16.17;;;10.55;;
39188;SDS011;24915;50.858;4.376;2023-05-21T14:19:23;16.40;;;10.85;;
39188;SDS011;24915;50.858;4.376;2023-05-21T14:21:52;20.50;;;11.18;;
39188;SDS011;24915;50.858;4.376;2023-05-21T14:24:19;12.88;;;9.20;;
39188;SDS011;24915;50.858;4.376;2023-05-21T14:26:45;13.35;;;8.98;;
39188;SDS011;24915;50.858;4.376;2023-05-21T14:29:11;17.70;;;8.68;;
39188;SDS011;24915;50.858;4.376;2023-05-21T14:31:37;18.85;;;9.20;;
39188;SDS011;24915;50.858;4.376;2023-05-21T14:34:03;14.05;;;10.43;;
39188;SDS011;24915;50.858;4.376;2023-05-21T14:36:31;15.57;;;10.02;;
39188;SDS011;24915;50.858;4.376;2023-05-21T14:38:58;15.50;;;9.27;;
39188;SDS011;24915;50.858;4.376;2023-05-21T14:41:24;18.50;;;13.30;;
39188;SDS011;24915;50.858;4.376;2023-05-21T14:43:50;19.08;;;10.57;;
39188;SDS011;24915;50.858;4.376;2023-05-21T14:46:16;11.77;;;9.60;;
39188;SDS011;24915;50.858;4.376;2023-05-21T14:48:43;12.73;;;9.25;;
39188;SDS011;24915;50.858;4.376;2023-05-21T14:51:11;9.98;;;8.90;;
39188;SDS011;24915;50.858;4.376;2023-05-21T14:53:37;11.63;;;8.98;;